sensor_id;sensor_type;location;lat;lon;timestamp;P1;durP1;ratioP1;P2;durP2;ratioP2
49722;SDS011;43484;43.608;1.458;2023-02-23T00:01:58;51.17;;;19.50;;
49722;SDS011;43484;43.608;1.458;2023-02-23T00:04:29;47.00;;;18.95;;
49722;SDS011;43484;43.608;1.458;2023-02-23T00:06:56;50.75;;;18.83;;
49722;SDS011;43484;43.608;1.458;2023-02-23T00:09:23;47.13;;;18.92;;
49722;SDS011;43484;43.608;1.458;2023-02-23T00:11:50;45.90;;;17.67;;
49722;SDS011;43484;43.608;1.458;2023-02-23T00:14:18;46.15;;;16.92;;
49722;SDS011;43484;43.608;1.458;2023-02-23T00:16:45;52.40;;;17.05;;
49722;SDS011;43484;43.608;1.458;2023-02-23T00:19:12;49.70;;;15.38;;
49722;SDS011;43484;43.608;1.458;2023-02-23T00:21:42;35.95;;;16.60;;
49722;SDS011;43484;43.608;1.458;2023-02-23T00:24:10;43.78;;;17.42;;
49722;SDS011;43484;43.608;1.458;2023-02-23T00:26:40;43.53;;;18.25;;
49722;SDS011;43484;43.608;1.458;2023-02-23T00:29:11;38.05;;;16.30;;
49722;SDS011;43484;43.608;1.458;2023-02-23T00:31:49;44.40;;;15.82;;
49722;SDS011;43484;43.608;1.458;2023-02-23T00:34:18;42.63;;;16.55;;
49722;SDS011;43484;43.608;1.458;2023-02-23T00:36:49;43.63;;;17.38;;
49722;SDS011;43484;43.608;1.458;2023-02-23T00:39:20;43.80;;;16.70;;
49722;SDS011;43484;43.608;1.458;2023-02-23T00:41:52;41.25;;;17.10;;
49722;SDS011;43484;43.608;1.458;2023-02-23T00:44:21;40.50;;;16.67;;
49722;SDS011;43484;43.608;1.458;2023-02-23T00:46:49;44.40;;;17.08;;
49722;SDS011;43484;43.608;1.458;2023-02-23T00:49:18;46.03;;;16.45;;
49722;SDS011;43484;43.608;1.458;2023-02-23T00:51:46;44.90;;;16.95;;
49722;SDS011;43484;43.608;1.458;2023-02-23T00:54:13;42.10;;;17.20;;
49722;SDS011;43484;43.608;1.458;2023-02-23T00:56:41;47.80;;;18.88;;
49722;SDS011;43484;43.608;1.458;2023-02-23T00:59:08;46.28;;;18.52;;
49722;SDS011;43484;43.608;1.458;2023-02-23T01:01:36;46.10;;;18.85;;
49722;SDS011;43484;43.608;1.458;2023-02-23T01:04:03;49.67;;;19.38;;
49722;SDS011;43484;43.608;1.458;2023-02-23T01:06:31;48.40;;;20.45;;
49722;SDS011;43484;43.608;1.458;2023-02-23T01:08:57;47.00;;;19.05;;
49722;SDS011;43484;43.608;1.458;2023-02-23T01:11:25;43.33;;;19.90;;
49722;SDS011;43484;43.608;1.458;2023-02-23T01:13:55;49.30;;;19.45;;
49722;SDS011;43484;43.608;1.458;2023-02-23T01:16:24;48.40;;;21.02;;
49722;SDS011;43484;43.608;1.458;2023-02-23T01:18:53;49.90;;;22.75;;
49722;SDS011;43484;43.608;1.458;2023-02-23T01:21:23;41.50;;;21.40;;
49722;SDS011;43484;43.608;1.458;2023-02-23T01:23:52;47.03;;;22.10;;
49722;SDS011;43484;43.608;1.458;2023-02-23T01:26:27;58.40;;;22.30;;
49722;SDS011;43484;43.608;1.458;2023-02-23T01:28:57;47.58;;;22.98;;
49722;SDS011;43484;43.608;1.458;2023-02-23T01:31:26;52.28;;;22.60;;
49722;SDS011;43484;43.608;1.458;2023-02-23T01:33:58;52.53;;;21.65;;
49722;SDS011;43484;43.608;1.458;2023-02-23T01:36:26;55.35;;;22.50;;
49722;SDS011;43484;43.608;1.458;2023-02-23T01:38:54;53.85;;;22.48;;
49722;SDS011;43484;43.608;1.458;2023-02-23T01:41:22;46.58;;;22.77;;
49722;SDS011;43484;43.608;1.458;2023-02-23T01:43:55;45.33;;;22.65;;
49722;SDS011;43484;43.608;1.458;2023-02-23T01:46:21;49.95;;;21.20;;
49722;SDS011;43484;43.608;1.458;2023-02-23T01:48:48;43.63;;;21.92;;
49722;SDS011;43484;43.608;1.458;2023-02-23T01:51:18;38.72;;;21.33;;
49722;SDS011;43484;43.608;1.458;2023-02-23T01:53:55;58.55;;;21.35;;
49722;SDS011;43484;43.608;1.458;2023-02-23T01:56:27;50.08;;;20.95;;
49722;SDS011;43484;43.608;1.458;2023-02-23T01:58:57;46.38;;;22.48;;
49722;SDS011;43484;43.608;1.458;2023-02-23T02:01:28;50.95;;;22.90;;
49722;SDS011;43484;43.608;1.458;2023-02-23T02:03:56;49.08;;;24.27;;
49722;SDS011;43484;43.608;1.458;2023-02-23T02:06:25;54.80;;;24.63;;
49722;SDS011;43484;43.608;1.458;2023-02-23T02:09:00;48.13;;;23.33;;
49722;SDS011;43484;43.608;1.458;2023-02-23T02:11:42;44.88;;;23.77;;
49722;SDS011;43484;43.608;1.458;2023-02-23T02:14:13;50.45;;;24.30;;
49722;SDS011;43484;43.608;1.458;2023-02-23T02:19:33;49.42;;;23.40;;
49722;SDS011;43484;43.608;1.458;2023-02-23T02:41:36;56.90;;;23.00;;
49722;SDS011;43484;43.608;1.458;2023-02-23T02:44:22;52.30;;;23.50;;
49722;SDS011;43484;43.608;1.458;2023-02-23T02:47:15;49.40;;;23.30;;
49722;SDS011;43484;43.608;1.458;2023-02-23T02:49:49;41.78;;;21.90;;
49722;SDS011;43484;43.608;1.458;2023-02-23T02:52:28;57.22;;;22.48;;
49722;SDS011;43484;43.608;1.458;2023-02-23T02:55:10;44.30;;;21.15;;
49722;SDS011;43484;43.608;1.458;2023-02-23T02:57:41;49.33;;;20.80;;
49722;SDS011;43484;43.608;1.458;2023-02-23T03:00:12;50.15;;;20.15;;
49722;SDS011;43484;43.608;1.458;2023-02-23T03:03:07;47.08;;;22.05;;
49722;SDS011;43484;43.608;1.458;2023-02-23T03:09:02;39.72;;;20.95;;
49722;SDS011;43484;43.608;1.458;2023-02-23T03:12:31;45.75;;;21.75;;
49722;SDS011;43484;43.608;1.458;2023-02-23T03:15:26;44.85;;;21.70;;
49722;SDS011;43484;43.608;1.458;2023-02-23T03:18:30;42.72;;;21.30;;
49722;SDS011;43484;43.608;1.458;2023-02-23T03:21:24;37.67;;;21.20;;
49722;SDS011;43484;43.608;1.458;2023-02-23T03:30:05;39.30;;;21.52;;
49722;SDS011;43484;43.608;1.458;2023-02-23T03:33:01;45.10;;;22.75;;
49722;SDS011;43484;43.608;1.458;2023-02-23T03:35:56;42.58;;;22.35;;
49722;SDS011;43484;43.608;1.458;2023-02-23T03:38:55;34.42;;;20.30;;
49722;SDS011;43484;43.608;1.458;2023-02-23T03:41:48;39.17;;;20.88;;
49722;SDS011;43484;43.608;1.458;2023-02-23T03:44:38;34.40;;;18.70;;
49722;SDS011;43484;43.608;1.458;2023-02-23T03:47:27;30.13;;;17.75;;
49722;SDS011;43484;43.608;1.458;2023-02-23T03:50:28;31.73;;;20.23;;
49722;SDS011;43484;43.608;1.458;2023-02-23T03:53:20;33.85;;;19.55;;
49722;SDS011;43484;43.608;1.458;2023-02-23T03:56:15;32.83;;;20.42;;
49722;SDS011;43484;43.608;1.458;2023-02-23T03:59:03;38.17;;;21.95;;
49722;SDS011;43484;43.608;1.458;2023-02-23T04:01:51;32.55;;;21.15;;
49722;SDS011;43484;43.608;1.458;2023-02-23T04:04:39;36.60;;;20.45;;
49722;SDS011;43484;43.608;1.458;2023-02-23T04:07:26;31.65;;;19.55;;
49722;SDS011;43484;43.608;1.458;2023-02-23T04:10:12;35.13;;;19.92;;
49722;SDS011;43484;43.608;1.458;2023-02-23T04:15:56;31.38;;;19.65;;
49722;SDS011;43484;43.608;1.458;2023-02-23T04:18:34;37.20;;;17.88;;
49722;SDS011;43484;43.608;1.458;2023-02-23T04:21:03;85.95;;;16.27;;
49722;SDS011;43484;43.608;1.458;2023-02-23T04:23:30;43.60;;;14.85;;
49722;SDS011;43484;43.608;1.458;2023-02-23T04:25:58;47.55;;;15.40;;
49722;SDS011;43484;43.608;1.458;2023-02-23T04:28:25;34.40;;;15.18;;
49722;SDS011;43484;43.608;1.458;2023-02-23T04:30:53;52.35;;;15.45;;
49722;SDS011;43484;43.608;1.458;2023-02-23T04:33:20;37.00;;;15.90;;
49722;SDS011;43484;43.608;1.458;2023-02-23T04:35:47;26.67;;;15.77;;
49722;SDS011;43484;43.608;1.458;2023-02-23T04:38:14;28.90;;;14.90;;
49722;SDS011;43484;43.608;1.458;2023-02-23T04:40:41;35.53;;;15.75;;
49722;SDS011;43484;43.608;1.458;2023-02-23T04:43:08;51.03;;;15.70;;
49722;SDS011;43484;43.608;1.458;2023-02-23T04:45:37;35.63;;;15.82;;
49722;SDS011;43484;43.608;1.458;2023-02-23T04:48:04;59.15;;;15.40;;
49722;SDS011;43484;43.608;1.458;2023-02-23T04:50:31;47.80;;;17.55;;
49722;SDS011;43484;43.608;1.458;2023-02-23T04:52:58;56.75;;;15.57;;
49722;SDS011;43484;43.608;1.458;2023-02-23T04:55:25;27.65;;;14.55;;
49722;SDS011;43484;43.608;1.458;2023-02-23T04:57:55;34.65;;;16.13;;
49722;SDS011;43484;43.608;1.458;2023-02-23T05:00:24;28.58;;;17.00;;
49722;SDS011;43484;43.608;1.458;2023-02-23T05:02:51;25.52;;;17.65;;
49722;SDS011;43484;43.608;1.458;2023-02-23T05:05:18;29.35;;;19.23;;
49722;SDS011;43484;43.608;1.458;2023-02-23T05:07:44;36.03;;;19.52;;
49722;SDS011;43484;43.608;1.458;2023-02-23T05:10:11;36.47;;;19.20;;
49722;SDS011;43484;43.608;1.458;2023-02-23T05:12:37;41.05;;;19.80;;
49722;SDS011;43484;43.608;1.458;2023-02-23T05:15:04;32.75;;;20.08;;
49722;SDS011;43484;43.608;1.458;2023-02-23T05:17:31;40.85;;;19.75;;
49722;SDS011;43484;43.608;1.458;2023-02-23T05:19:58;50.53;;;18.83;;
49722;SDS011;43484;43.608;1.458;2023-02-23T05:22:24;35.85;;;17.98;;
49722;SDS011;43484;43.608;1.458;2023-02-23T05:24:51;36.75;;;17.55;;
49722;SDS011;43484;43.608;1.458;2023-02-23T05:27:17;44.13;;;16.70;;
49722;SDS011;43484;43.608;1.458;2023-02-23T05:29:44;26.88;;;15.27;;
49722;SDS011;43484;43.608;1.458;2023-02-23T05:32:10;29.35;;;17.23;;
49722;SDS011;43484;43.608;1.458;2023-02-23T05:34:37;28.27;;;16.58;;
49722;SDS011;43484;43.608;1.458;2023-02-23T05:37:04;28.45;;;16.25;;
49722;SDS011;43484;43.608;1.458;2023-02-23T05:39:31;30.63;;;17.13;;
49722;SDS011;43484;43.608;1.458;2023-02-23T05:41:58;28.00;;;15.70;;
49722;SDS011;43484;43.608;1.458;2023-02-23T05:44:25;31.77;;;15.77;;
49722;SDS011;43484;43.608;1.458;2023-02-23T05:46:51;33.67;;;15.60;;
49722;SDS011;43484;43.608;1.458;2023-02-23T05:49:18;25.13;;;15.05;;
49722;SDS011;43484;43.608;1.458;2023-02-23T05:51:45;26.02;;;15.50;;
49722;SDS011;43484;43.608;1.458;2023-02-23T05:54:11;22.42;;;14.15;;
49722;SDS011;43484;43.608;1.458;2023-02-23T05:56:40;21.55;;;12.95;;
49722;SDS011;43484;43.608;1.458;2023-02-23T05:59:07;17.83;;;12.82;;
49722;SDS011;43484;43.608;1.458;2023-02-23T06:01:34;22.95;;;13.80;;
49722;SDS011;43484;43.608;1.458;2023-02-23T06:04:01;22.20;;;12.73;;
49722;SDS011;43484;43.608;1.458;2023-02-23T06:06:30;25.70;;;13.98;;
49722;SDS011;43484;43.608;1.458;2023-02-23T06:08:57;26.52;;;15.23;;
49722;SDS011;43484;43.608;1.458;2023-02-23T06:11:24;34.22;;;15.40;;
49722;SDS011;43484;43.608;1.458;2023-02-23T06:13:50;26.80;;;14.48;;
49722;SDS011;43484;43.608;1.458;2023-02-23T06:16:17;36.05;;;15.77;;
49722;SDS011;43484;43.608;1.458;2023-02-23T06:18:44;45.55;;;15.52;;
49722;SDS011;43484;43.608;1.458;2023-02-23T06:21:10;62.17;;;15.02;;
49722;SDS011;43484;43.608;1.458;2023-02-23T06:23:37;103.20;;;14.88;;
49722;SDS011;43484;43.608;1.458;2023-02-23T06:26:04;65.63;;;14.52;;
49722;SDS011;43484;43.608;1.458;2023-02-23T06:28:31;73.32;;;14.68;;
49722;SDS011;43484;43.608;1.458;2023-02-23T06:30:58;112.38;;;15.45;;
49722;SDS011;43484;43.608;1.458;2023-02-23T06:33:25;119.57;;;15.40;;
49722;SDS011;43484;43.608;1.458;2023-02-23T06:35:51;68.57;;;14.88;;
49722;SDS011;43484;43.608;1.458;2023-02-23T06:38:19;60.42;;;15.20;;
49722;SDS011;43484;43.608;1.458;2023-02-23T06:40:46;41.70;;;14.32;;
49722;SDS011;43484;43.608;1.458;2023-02-23T06:43:13;33.70;;;14.27;;
49722;SDS011;43484;43.608;1.458;2023-02-23T06:45:39;78.45;;;14.85;;
49722;SDS011;43484;43.608;1.458;2023-02-23T06:48:06;43.20;;;14.68;;
49722;SDS011;43484;43.608;1.458;2023-02-23T06:50:34;31.33;;;15.48;;
49722;SDS011;43484;43.608;1.458;2023-02-23T06:53:00;38.55;;;16.50;;
49722;SDS011;43484;43.608;1.458;2023-02-23T06:55:27;43.42;;;15.77;;
49722;SDS011;43484;43.608;1.458;2023-02-23T06:57:54;40.10;;;17.38;;
49722;SDS011;43484;43.608;1.458;2023-02-23T07:00:21;47.05;;;18.30;;
49722;SDS011;43484;43.608;1.458;2023-02-23T07:02:48;53.47;;;19.15;;
49722;SDS011;43484;43.608;1.458;2023-02-23T07:05:14;40.08;;;18.45;;
49722;SDS011;43484;43.608;1.458;2023-02-23T07:07:41;57.75;;;19.67;;
49722;SDS011;43484;43.608;1.458;2023-02-23T07:10:08;45.45;;;17.90;;
49722;SDS011;43484;43.608;1.458;2023-02-23T07:12:36;44.85;;;19.90;;
49722;SDS011;43484;43.608;1.458;2023-02-23T07:15:03;38.70;;;17.98;;
49722;SDS011;43484;43.608;1.458;2023-02-23T07:17:30;37.53;;;17.73;;
49722;SDS011;43484;43.608;1.458;2023-02-23T07:19:56;39.75;;;17.85;;
49722;SDS011;43484;43.608;1.458;2023-02-23T07:22:23;35.95;;;19.48;;
49722;SDS011;43484;43.608;1.458;2023-02-23T07:24:52;50.17;;;19.50;;
49722;SDS011;43484;43.608;1.458;2023-02-23T07:27:19;38.20;;;17.98;;
49722;SDS011;43484;43.608;1.458;2023-02-23T07:29:46;48.97;;;18.70;;
49722;SDS011;43484;43.608;1.458;2023-02-23T07:32:12;38.45;;;17.92;;
49722;SDS011;43484;43.608;1.458;2023-02-23T07:34:39;37.95;;;17.92;;
49722;SDS011;43484;43.608;1.458;2023-02-23T07:37:06;40.05;;;17.52;;
49722;SDS011;43484;43.608;1.458;2023-02-23T07:39:32;29.90;;;17.38;;
49722;SDS011;43484;43.608;1.458;2023-02-23T07:41:59;37.60;;;17.75;;
49722;SDS011;43484;43.608;1.458;2023-02-23T07:44:25;34.80;;;17.45;;
49722;SDS011;43484;43.608;1.458;2023-02-23T07:46:52;29.05;;;15.90;;
49722;SDS011;43484;43.608;1.458;2023-02-23T07:49:18;38.95;;;18.25;;
49722;SDS011;43484;43.608;1.458;2023-02-23T07:51:45;39.72;;;19.20;;
49722;SDS011;43484;43.608;1.458;2023-02-23T07:54:12;43.78;;;20.75;;
49722;SDS011;43484;43.608;1.458;2023-02-23T07:56:40;44.95;;;19.73;;
49722;SDS011;43484;43.608;1.458;2023-02-23T07:59:06;40.63;;;19.42;;
49722;SDS011;43484;43.608;1.458;2023-02-23T08:01:33;40.08;;;19.35;;
49722;SDS011;43484;43.608;1.458;2023-02-23T08:04:01;40.38;;;19.83;;
49722;SDS011;43484;43.608;1.458;2023-02-23T08:06:28;37.80;;;18.55;;
49722;SDS011;43484;43.608;1.458;2023-02-23T08:08:59;53.88;;;19.92;;
49722;SDS011;43484;43.608;1.458;2023-02-23T08:11:26;35.38;;;18.60;;
49722;SDS011;43484;43.608;1.458;2023-02-23T08:13:56;37.10;;;17.50;;
49722;SDS011;43484;43.608;1.458;2023-02-23T08:16:26;38.08;;;18.70;;
49722;SDS011;43484;43.608;1.458;2023-02-23T08:18:55;31.35;;;17.63;;
49722;SDS011;43484;43.608;1.458;2023-02-23T08:21:23;35.92;;;18.95;;
49722;SDS011;43484;43.608;1.458;2023-02-23T08:23:50;38.17;;;17.80;;
49722;SDS011;43484;43.608;1.458;2023-02-23T08:26:17;30.65;;;17.23;;
49722;SDS011;43484;43.608;1.458;2023-02-23T08:28:44;35.00;;;16.13;;
49722;SDS011;43484;43.608;1.458;2023-02-23T08:31:12;35.65;;;16.65;;
49722;SDS011;43484;43.608;1.458;2023-02-23T08:33:41;29.45;;;15.30;;
49722;SDS011;43484;43.608;1.458;2023-02-23T08:36:08;35.28;;;15.85;;
49722;SDS011;43484;43.608;1.458;2023-02-23T08:38:35;30.95;;;13.80;;
49722;SDS011;43484;43.608;1.458;2023-02-23T08:41:02;34.33;;;14.93;;
49722;SDS011;43484;43.608;1.458;2023-02-23T08:43:30;28.40;;;13.82;;
49722;SDS011;43484;43.608;1.458;2023-02-23T08:45:57;38.50;;;14.27;;
49722;SDS011;43484;43.608;1.458;2023-02-23T08:48:24;32.47;;;14.65;;
49722;SDS011;43484;43.608;1.458;2023-02-23T08:50:54;30.67;;;14.88;;
49722;SDS011;43484;43.608;1.458;2023-02-23T08:53:22;27.23;;;15.70;;
49722;SDS011;43484;43.608;1.458;2023-02-23T08:56:00;33.10;;;15.02;;
49722;SDS011;43484;43.608;1.458;2023-02-23T08:58:29;31.35;;;14.77;;
49722;SDS011;43484;43.608;1.458;2023-02-23T09:00:56;30.85;;;16.92;;
49722;SDS011;43484;43.608;1.458;2023-02-23T09:03:23;38.15;;;16.30;;
49722;SDS011;43484;43.608;1.458;2023-02-23T09:05:51;30.88;;;14.57;;
49722;SDS011;43484;43.608;1.458;2023-02-23T09:08:18;34.95;;;15.45;;
49722;SDS011;43484;43.608;1.458;2023-02-23T09:10:45;40.63;;;14.63;;
49722;SDS011;43484;43.608;1.458;2023-02-23T09:13:12;37.60;;;16.00;;
49722;SDS011;43484;43.608;1.458;2023-02-23T09:15:39;37.90;;;16.40;;
49722;SDS011;43484;43.608;1.458;2023-02-23T09:18:07;40.00;;;15.75;;
49722;SDS011;43484;43.608;1.458;2023-02-23T09:20:42;44.13;;;16.65;;
49722;SDS011;43484;43.608;1.458;2023-02-23T09:23:10;38.63;;;17.33;;
49722;SDS011;43484;43.608;1.458;2023-02-23T09:25:38;38.60;;;14.43;;
49722;SDS011;43484;43.608;1.458;2023-02-23T09:28:10;36.25;;;15.55;;
49722;SDS011;43484;43.608;1.458;2023-02-23T09:30:39;28.50;;;14.23;;
49722;SDS011;43484;43.608;1.458;2023-02-23T09:33:07;47.25;;;17.88;;
49722;SDS011;43484;43.608;1.458;2023-02-23T09:35:34;43.13;;;17.30;;
49722;SDS011;43484;43.608;1.458;2023-02-23T09:38:02;38.90;;;15.82;;
49722;SDS011;43484;43.608;1.458;2023-02-23T09:40:34;34.67;;;16.02;;
49722;SDS011;43484;43.608;1.458;2023-02-23T09:45:57;8.23;;;5.00;;
49722;SDS011;43484;43.608;1.458;2023-02-23T09:48:30;10.90;;;4.15;;
49722;SDS011;43484;43.608;1.458;2023-02-23T09:50:59;11.45;;;4.70;;
49722;SDS011;43484;43.608;1.458;2023-02-23T09:53:28;5.68;;;2.15;;
49722;SDS011;43484;43.608;1.458;2023-02-23T09:55:59;2.33;;;1.20;;
49722;SDS011;43484;43.608;1.458;2023-02-23T09:58:32;4.28;;;1.20;;
49722;SDS011;43484;43.608;1.458;2023-02-23T10:06:18;1.95;;;0.70;;
49722;SDS011;43484;43.608;1.458;2023-02-23T10:11:45;2.33;;;0.65;;
49722;SDS011;43484;43.608;1.458;2023-02-23T10:20:03;2.05;;;0.50;;
49722;SDS011;43484;43.608;1.458;2023-02-23T10:22:38;2.63;;;0.55;;
49722;SDS011;43484;43.608;1.458;2023-02-23T10:25:11;0.73;;;0.60;;
49722;SDS011;43484;43.608;1.458;2023-02-23T10:27:42;0.52;;;0.20;;
49722;SDS011;43484;43.608;1.458;2023-02-23T10:30:22;0.90;;;0.50;;
49722;SDS011;43484;43.608;1.458;2023-02-23T10:32:54;3.65;;;0.40;;
49722;SDS011;43484;43.608;1.458;2023-02-23T10:35:43;4.65;;;0.80;;
49722;SDS011;43484;43.608;1.458;2023-02-23T10:38:17;3.80;;;1.10;;
49722;SDS011;43484;43.608;1.458;2023-02-23T10:40:47;1.75;;;0.90;;
49722;SDS011;43484;43.608;1.458;2023-02-23T10:43:16;2.22;;;0.70;;
49722;SDS011;43484;43.608;1.458;2023-02-23T10:45:47;4.10;;;0.60;;
49722;SDS011;43484;43.608;1.458;2023-02-23T10:48:19;0.30;;;0.22;;
49722;SDS011;43484;43.608;1.458;2023-02-23T10:50:51;2.15;;;0.80;;
49722;SDS011;43484;43.608;1.458;2023-02-23T10:53:27;0.55;;;0.30;;
49722;SDS011;43484;43.608;1.458;2023-02-23T10:58:27;0.85;;;0.43;;
49722;SDS011;43484;43.608;1.458;2023-02-23T11:12:29;1.73;;;0.60;;
49722;SDS011;43484;43.608;1.458;2023-02-23T11:15:24;0.82;;;0.55;;
49722;SDS011;43484;43.608;1.458;2023-02-23T11:18:19;1.70;;;1.00;;
49722;SDS011;43484;43.608;1.458;2023-02-23T11:20:50;2.53;;;0.70;;
49722;SDS011;43484;43.608;1.458;2023-02-23T11:23:20;1.42;;;0.50;;
49722;SDS011;43484;43.608;1.458;2023-02-23T11:25:55;1.88;;;0.80;;
49722;SDS011;43484;43.608;1.458;2023-02-23T11:28:35;1.67;;;0.70;;
49722;SDS011;43484;43.608;1.458;2023-02-23T11:31:13;2.20;;;1.00;;
49722;SDS011;43484;43.608;1.458;2023-02-23T11:33:43;3.53;;;1.55;;
49722;SDS011;43484;43.608;1.458;2023-02-23T11:36:14;5.72;;;1.00;;
49722;SDS011;43484;43.608;1.458;2023-02-23T11:38:47;1.25;;;0.80;;
49722;SDS011;43484;43.608;1.458;2023-02-23T11:41:42;1.23;;;0.70;;
49722;SDS011;43484;43.608;1.458;2023-02-23T11:44:21;2.25;;;1.05;;
49722;SDS011;43484;43.608;1.458;2023-02-23T11:46:49;1.98;;;0.95;;
49722;SDS011;43484;43.608;1.458;2023-02-23T11:49:19;0.88;;;0.60;;
49722;SDS011;43484;43.608;1.458;2023-02-23T11:51:52;1.55;;;0.60;;
49722;SDS011;43484;43.608;1.458;2023-02-23T11:54:21;1.95;;;0.98;;
49722;SDS011;43484;43.608;1.458;2023-02-23T11:56:52;7.07;;;0.82;;
49722;SDS011;43484;43.608;1.458;2023-02-23T11:59:23;1.38;;;0.80;;
49722;SDS011;43484;43.608;1.458;2023-02-23T12:01:59;1.48;;;0.80;;
49722;SDS011;43484;43.608;1.458;2023-02-23T12:04:35;3.30;;;1.10;;
49722;SDS011;43484;43.608;1.458;2023-02-23T12:12:21;2.85;;;2.10;;
49722;SDS011;43484;43.608;1.458;2023-02-23T12:14:55;1.55;;;1.00;;
49722;SDS011;43484;43.608;1.458;2023-02-23T12:17:35;3.17;;;1.10;;
49722;SDS011;43484;43.608;1.458;2023-02-23T12:20:13;4.03;;;0.90;;
49722;SDS011;43484;43.608;1.458;2023-02-23T12:22:46;4.93;;;0.80;;
49722;SDS011;43484;43.608;1.458;2023-02-23T12:25:20;7.25;;;1.25;;
49722;SDS011;43484;43.608;1.458;2023-02-23T12:28:01;4.32;;;1.20;;
49722;SDS011;43484;43.608;1.458;2023-02-23T12:30:49;2.65;;;1.10;;
49722;SDS011;43484;43.608;1.458;2023-02-23T12:33:23;1.83;;;0.80;;
49722;SDS011;43484;43.608;1.458;2023-02-23T12:40:55;1.83;;;0.82;;
49722;SDS011;43484;43.608;1.458;2023-02-23T12:43:38;2.75;;;0.90;;
49722;SDS011;43484;43.608;1.458;2023-02-23T12:46:20;1.58;;;0.80;;
49722;SDS011;43484;43.608;1.458;2023-02-23T12:51:43;2.92;;;0.88;;
49722;SDS011;43484;43.608;1.458;2023-02-23T12:54:13;1.50;;;0.73;;
49722;SDS011;43484;43.608;1.458;2023-02-23T12:57:06;4.78;;;0.93;;
49722;SDS011;43484;43.608;1.458;2023-02-23T13:02:31;1.38;;;0.75;;
49722;SDS011;43484;43.608;1.458;2023-02-23T13:07:40;4.22;;;0.93;;
49722;SDS011;43484;43.608;1.458;2023-02-23T13:12:55;0.68;;;0.57;;
49722;SDS011;43484;43.608;1.458;2023-02-23T13:15:44;6.32;;;1.13;;
49722;SDS011;43484;43.608;1.458;2023-02-23T13:18:21;1.05;;;0.77;;
49722;SDS011;43484;43.608;1.458;2023-02-23T13:21:04;2.88;;;1.25;;
49722;SDS011;43484;43.608;1.458;2023-02-23T13:32:12;2.25;;;0.95;;
49722;SDS011;43484;43.608;1.458;2023-02-23T13:35:04;2.60;;;0.80;;
49722;SDS011;43484;43.608;1.458;2023-02-23T13:37:35;3.42;;;0.68;;
49722;SDS011;43484;43.608;1.458;2023-02-23T13:40:30;1.42;;;1.02;;
49722;SDS011;43484;43.608;1.458;2023-02-23T13:43:38;1.45;;;0.85;;
49722;SDS011;43484;43.608;1.458;2023-02-23T13:46:21;4.63;;;1.42;;
49722;SDS011;43484;43.608;1.458;2023-02-23T13:49:01;7.30;;;1.40;;
49722;SDS011;43484;43.608;1.458;2023-02-23T13:51:54;1.25;;;0.90;;
49722;SDS011;43484;43.608;1.458;2023-02-23T13:54:32;1.40;;;0.90;;
49722;SDS011;43484;43.608;1.458;2023-02-23T13:57:03;1.20;;;0.70;;
49722;SDS011;43484;43.608;1.458;2023-02-23T13:59:40;0.88;;;0.73;;
49722;SDS011;43484;43.608;1.458;2023-02-23T14:05:15;1.10;;;0.75;;
49722;SDS011;43484;43.608;1.458;2023-02-23T14:07:50;3.38;;;0.82;;
49722;SDS011;43484;43.608;1.458;2023-02-23T14:10:26;3.20;;;1.00;;
49722;SDS011;43484;43.608;1.458;2023-02-23T14:13:05;2.92;;;1.17;;
49722;SDS011;43484;43.608;1.458;2023-02-23T14:15:43;0.70;;;0.70;;
49722;SDS011;43484;43.608;1.458;2023-02-23T14:23:28;1.53;;;0.83;;
49722;SDS011;43484;43.608;1.458;2023-02-23T14:26:08;1.60;;;0.90;;
49722;SDS011;43484;43.608;1.458;2023-02-23T14:28:45;0.75;;;0.60;;
49722;SDS011;43484;43.608;1.458;2023-02-23T14:31:17;1.05;;;0.80;;
49722;SDS011;43484;43.608;1.458;2023-02-23T14:33:49;2.50;;;1.00;;
49722;SDS011;43484;43.608;1.458;2023-02-23T14:41:24;1.95;;;0.90;;
49722;SDS011;43484;43.608;1.458;2023-02-23T14:44:07;7.72;;;1.83;;
49722;SDS011;43484;43.608;1.458;2023-02-23T14:47:13;2.15;;;1.00;;
49722;SDS011;43484;43.608;1.458;2023-02-23T14:49:44;1.08;;;0.80;;
49722;SDS011;43484;43.608;1.458;2023-02-23T14:52:57;2.40;;;0.75;;
49722;SDS011;43484;43.608;1.458;2023-02-23T14:57:38;2.08;;;0.85;;
49722;SDS011;43484;43.608;1.458;2023-02-23T15:00:28;2.58;;;0.90;;
49722;SDS011;43484;43.608;1.458;2023-02-23T15:03:07;3.35;;;1.10;;
49722;SDS011;43484;43.608;1.458;2023-02-23T15:05:41;1.02;;;0.80;;
49722;SDS011;43484;43.608;1.458;2023-02-23T15:08:16;0.82;;;0.82;;
49722;SDS011;43484;43.608;1.458;2023-02-23T15:10:46;6.68;;;1.25;;
49722;SDS011;43484;43.608;1.458;2023-02-23T15:13:25;4.20;;;1.33;;
49722;SDS011;43484;43.608;1.458;2023-02-23T15:15:55;2.05;;;1.17;;
49722;SDS011;43484;43.608;1.458;2023-02-23T15:18:29;2.92;;;1.60;;
49722;SDS011;43484;43.608;1.458;2023-02-23T15:21:17;3.63;;;1.95;;
49722;SDS011;43484;43.608;1.458;2023-02-23T15:23:49;4.43;;;1.63;;
49722;SDS011;43484;43.608;1.458;2023-02-23T15:31:36;1.77;;;1.42;;
49722;SDS011;43484;43.608;1.458;2023-02-23T15:34:09;2.30;;;2.10;;
49722;SDS011;43484;43.608;1.458;2023-02-23T15:36:36;4.85;;;1.90;;
49722;SDS011;43484;43.608;1.458;2023-02-23T15:39:06;2.65;;;2.13;;
49722;SDS011;43484;43.608;1.458;2023-02-23T15:41:40;3.15;;;2.53;;
49722;SDS011;43484;43.608;1.458;2023-02-23T15:44:15;5.45;;;2.70;;
49722;SDS011;43484;43.608;1.458;2023-02-23T15:46:54;5.85;;;3.10;;
49722;SDS011;43484;43.608;1.458;2023-02-23T15:49:28;2.88;;;2.58;;
49722;SDS011;43484;43.608;1.458;2023-02-23T15:55:01;3.80;;;3.50;;
49722;SDS011;43484;43.608;1.458;2023-02-23T16:00:19;5.15;;;3.60;;
49722;SDS011;43484;43.608;1.458;2023-02-23T16:03:01;3.40;;;3.10;;
49722;SDS011;43484;43.608;1.458;2023-02-23T16:05:29;2.88;;;2.35;;
49722;SDS011;43484;43.608;1.458;2023-02-23T16:08:18;4.70;;;2.58;;
49722;SDS011;43484;43.608;1.458;2023-02-23T16:10:49;4.40;;;3.58;;
49722;SDS011;43484;43.608;1.458;2023-02-23T16:13:20;3.28;;;3.00;;
49722;SDS011;43484;43.608;1.458;2023-02-23T16:15:49;7.78;;;3.22;;
49722;SDS011;43484;43.608;1.458;2023-02-23T16:18:26;3.70;;;3.28;;
49722;SDS011;43484;43.608;1.458;2023-02-23T16:21:10;4.65;;;3.90;;
49722;SDS011;43484;43.608;1.458;2023-02-23T16:23:43;3.67;;;3.35;;
49722;SDS011;43484;43.608;1.458;2023-02-23T16:26:17;4.05;;;3.65;;
49722;SDS011;43484;43.608;1.458;2023-02-23T16:28:52;4.05;;;3.65;;
49722;SDS011;43484;43.608;1.458;2023-02-23T16:31:23;4.57;;;4.18;;
49722;SDS011;43484;43.608;1.458;2023-02-23T16:34:18;5.40;;;4.78;;
49722;SDS011;43484;43.608;1.458;2023-02-23T16:36:59;4.88;;;4.22;;
49722;SDS011;43484;43.608;1.458;2023-02-23T16:39:29;7.05;;;5.30;;
49722;SDS011;43484;43.608;1.458;2023-02-23T16:41:59;5.50;;;5.05;;
49722;SDS011;43484;43.608;1.458;2023-02-23T16:44:26;5.57;;;5.18;;
49722;SDS011;43484;43.608;1.458;2023-02-23T16:49:34;7.55;;;6.80;;
49722;SDS011;43484;43.608;1.458;2023-02-23T16:52:02;6.57;;;6.00;;
49722;SDS011;43484;43.608;1.458;2023-02-23T16:54:37;5.30;;;4.80;;
49722;SDS011;43484;43.608;1.458;2023-02-23T16:57:05;7.40;;;5.28;;
49722;SDS011;43484;43.608;1.458;2023-02-23T16:59:43;11.90;;;5.30;;
49722;SDS011;43484;43.608;1.458;2023-02-23T17:02:10;6.13;;;4.20;;
49722;SDS011;43484;43.608;1.458;2023-02-23T17:04:39;5.40;;;3.42;;
49722;SDS011;43484;43.608;1.458;2023-02-23T17:07:14;5.43;;;3.60;;
49722;SDS011;43484;43.608;1.458;2023-02-23T17:09:42;5.45;;;4.28;;